Terminal Aerodrome Forecast
Issued by NWS Caribou, ME

Home | Current Version | Previous Version | Text Only | Print | Product List | Glossary On
Versions: 1 2 3 4 5 6 7 8 9 10 11 12 13 14 15 16 17 18 19
000
FTUS41 KCAR 011121
TAFBGR
TAF
KBGR 011121Z 0112/0212 30010G20KT P6SM FEW250
     FM020100 31007KT P6SM FEW250
     FM020600 VRB03KT P6SM SCT250
     FM021000 VRB03KT P6SM BKN250=

USA.gov is the U.S. government's official web portal to all federal, state and local government web resources and services.